createdAt,value
2023-03-18T00:00:17.867Z,98.40
2023-03-18T00:02:49.207Z,98.30
2023-03-18T00:05:18.476Z,98.40
2023-03-18T00:07:47.931Z,98.40
2023-03-18T00:10:17.011Z,98.30
2023-03-18T00:12:46.287Z,98.10
2023-03-18T00:15:18.246Z,98.10
2023-03-18T00:17:49.444Z,98.20
2023-03-18T00:20:29.041Z,98.20
2023-03-18T00:22:58.361Z,98.20
2023-03-18T00:25:28.464Z,98.20
2023-03-18T00:27:57.102Z,98.20
2023-03-18T00:30:25.750Z,98.20
2023-03-18T00:32:58.332Z,98.30
2023-03-18T00:35:30.660Z,98.60
2023-03-18T00:38:00.579Z,98.30
2023-03-18T00:40:43.189Z,98.30
2023-03-18T00:43:12.976Z,98.30
2023-03-18T00:45:42.910Z,98.40
2023-03-18T00:48:12.662Z,98.30
2023-03-18T00:50:41.702Z,98.40
2023-03-18T00:53:10.114Z,98.30
2023-03-18T00:55:39.740Z,98.30
2023-03-18T00:58:09.123Z,98.40
2023-03-18T01:00:38.031Z,98.70
2023-03-18T01:03:08.034Z,98.70
2023-03-18T01:05:38.676Z,98.80
2023-03-18T01:08:08.043Z,98.70
2023-03-18T01:10:36.374Z,98.80
2023-03-18T01:13:04.947Z,98.70
2023-03-18T01:15:33.351Z,98.90
2023-03-18T01:18:02.136Z,98.80
2023-03-18T01:20:31.447Z,98.90
2023-03-18T01:23:02.018Z,99.00
2023-03-18T01:25:30.408Z,99.20
2023-03-18T01:27:59.536Z,99.10
2023-03-18T01:30:28.648Z,99.10
2023-03-18T01:32:57.265Z,99.00
2023-03-18T01:35:27.250Z,99.30
2023-03-18T01:37:56.003Z,99.10
2023-03-18T01:40:26.828Z,99.00
2023-03-18T01:42:58.831Z,99.10
2023-03-18T01:45:31.853Z,99.00
2023-03-18T01:48:00.371Z,99.00
2023-03-18T01:50:33.510Z,99.00
2023-03-18T01:53:06.447Z,99.20
2023-03-18T01:55:37.693Z,99.10
2023-03-18T01:58:10.207Z,99.10
2023-03-18T02:00:43.129Z,99.10
2023-03-18T02:03:11.824Z,99.30
2023-03-18T02:05:44.549Z,98.90
2023-03-18T02:08:13.195Z,99.00
2023-03-18T02:10:43.342Z,99.00
2023-03-18T02:13:12.868Z,98.90
2023-03-18T02:15:48.784Z,98.90
2023-03-18T02:18:21.983Z,98.90
2023-03-18T02:21:07.454Z,98.80
2023-03-18T02:23:45.745Z,99.00
2023-03-18T02:26:24.273Z,98.90
2023-03-18T02:28:58.282Z,99.10
2023-03-18T02:31:28.930Z,99.20
2023-03-18T02:33:57.730Z,99.10
2023-03-18T02:36:29.176Z,99.40
2023-03-18T02:39:00.464Z,99.10
2023-03-18T02:41:32.549Z,99.20
2023-03-18T02:44:03.061Z,99.10
2023-03-18T02:46:37.885Z,99.10
2023-03-18T02:49:09.143Z,99.10
2023-03-18T02:51:38.642Z,98.70
2023-03-18T02:54:10.514Z,98.60
2023-03-18T02:56:38.971Z,98.70
2023-03-18T02:59:09.698Z,98.50
2023-03-18T03:01:39.394Z,98.50
2023-03-18T03:04:08.169Z,98.60
2023-03-18T03:06:37.327Z,98.40
2023-03-18T03:09:06.708Z,98.10
2023-03-18T03:11:35.576Z,98.30
2023-03-18T03:14:04.351Z,98.30
2023-03-18T03:16:34.166Z,98.60
2023-03-18T03:19:02.612Z,98.50
2023-03-18T03:21:31.109Z,98.50
2023-03-18T03:23:59.611Z,98.30
2023-03-18T03:26:28.006Z,98.40
2023-03-18T03:28:57.191Z,98.30
2023-03-18T03:31:26.927Z,98.10
2023-03-18T03:33:57.354Z,97.90
2023-03-18T03:36:25.949Z,97.90
2023-03-18T03:38:54.205Z,97.90
2023-03-18T03:41:22.625Z,97.90
2023-03-18T03:43:50.905Z,97.90
2023-03-18T03:46:19.376Z,97.90
2023-03-18T03:48:48.185Z,98.00
2023-03-18T03:51:18.006Z,98.00
2023-03-18T03:53:46.642Z,98.00
2023-03-18T03:56:15.796Z,98.00
2023-03-18T03:58:44.292Z,98.00
2023-03-18T04:01:12.686Z,98.30
2023-03-18T04:03:40.969Z,98.10
2023-03-18T04:06:11.060Z,98.10
2023-03-18T04:08:41.580Z,98.00
2023-03-18T04:11:10.128Z,98.10
2023-03-18T04:13:38.606Z,98.10
2023-03-18T04:16:08.072Z,98.00
2023-03-18T04:18:36.526Z,98.10
2023-03-18T04:21:05.151Z,98.10
2023-03-18T04:23:34.009Z,98.10
2023-03-18T04:26:05.754Z,98.10
2023-03-18T04:28:34.267Z,98.00
2023-03-18T04:31:02.679Z,98.00
2023-03-18T04:33:31.024Z,98.10
2023-03-18T04:35:59.462Z,98.00
2023-03-18T04:38:28.712Z,98.20
2023-03-18T04:40:57.064Z,98.20
2023-03-18T04:43:26.709Z,98.20
2023-03-18T04:45:55.026Z,98.20
2023-03-18T04:48:23.814Z,98.10
2023-03-18T04:50:52.142Z,98.30
2023-03-18T04:53:20.612Z,98.20
2023-03-18T04:55:50.782Z,98.30
2023-03-18T04:58:19.145Z,98.20
2023-03-18T05:00:48.808Z,98.20
2023-03-18T05:03:17.130Z,98.20
2023-03-18T05:05:45.434Z,98.40
2023-03-18T05:08:14.487Z,98.50
2023-03-18T05:10:43.653Z,98.60
2023-03-18T05:13:11.974Z,98.60
2023-03-18T05:15:40.003Z,98.90
2023-03-18T05:18:09.737Z,99.00
2023-03-18T05:20:37.931Z,98.80
2023-03-18T05:23:06.018Z,98.80
2023-03-18T05:25:34.282Z,99.10
2023-03-18T05:28:03.317Z,98.90
2023-03-18T05:30:31.736Z,98.90
2023-03-18T05:32:59.752Z,98.90
2023-03-18T05:35:29.181Z,99.00
2023-03-18T05:37:57.219Z,98.90
2023-03-18T05:40:25.221Z,99.00
2023-03-18T05:42:56.595Z,99.00
2023-03-18T05:45:25.025Z,99.00
2023-03-18T05:47:53.264Z,99.00
2023-03-18T05:50:30.892Z,99.10
2023-03-18T05:52:59.158Z,99.00
2023-03-18T05:55:28.259Z,99.00
2023-03-18T05:57:56.691Z,99.00
2023-03-18T06:00:25.752Z,99.00
2023-03-18T06:02:54.014Z,99.00
2023-03-18T06:05:22.871Z,99.00
2023-03-18T06:07:53.995Z,99.00
2023-03-18T06:10:23.349Z,99.10
2023-03-18T06:12:51.922Z,99.00
2023-03-18T06:15:21.323Z,99.00
2023-03-18T06:17:49.900Z,99.00
2023-03-18T06:20:19.500Z,99.00
2023-03-18T06:22:49.843Z,99.00
2023-03-18T06:25:21.479Z,99.00
2023-03-18T06:27:49.687Z,99.00
2023-03-18T06:30:19.127Z,99.00
2023-03-18T06:32:47.280Z,99.00
2023-03-18T06:35:16.580Z,98.90
2023-03-18T06:37:44.655Z,99.20
2023-03-18T06:40:13.415Z,99.10
2023-03-18T06:42:42.910Z,99.30
2023-03-18T06:45:11.974Z,99.20
2023-03-18T06:47:40.868Z,99.30
2023-03-18T06:50:09.595Z,99.30
2023-03-18T06:52:38.423Z,98.80
2023-03-18T06:55:08.093Z,99.30
2023-03-18T06:57:36.401Z,99.40
2023-03-18T07:00:07.153Z,99.30
2023-03-18T07:02:39.405Z,99.20
2023-03-18T07:05:08.862Z,99.00
2023-03-18T07:07:38.651Z,98.60
2023-03-18T07:10:08.560Z,98.50
2023-03-18T07:12:37.126Z,98.30
2023-03-18T07:15:07.820Z,98.40
2023-03-18T07:17:36.751Z,98.10
2023-03-18T07:20:05.743Z,98.10
2023-03-18T07:22:33.900Z,97.90
2023-03-18T07:25:02.530Z,97.90
2023-03-18T07:27:30.971Z,97.40
2023-03-18T07:29:59.021Z,96.40
2023-03-18T07:32:30.153Z,96.50
2023-03-18T07:34:59.119Z,96.80
2023-03-18T07:37:27.561Z,96.40
2023-03-18T07:39:56.214Z,96.30
2023-03-18T07:42:24.379Z,96.00
2023-03-18T07:44:52.533Z,95.80
2023-03-18T07:47:23.856Z,95.70
2023-03-18T07:49:53.577Z,95.70
2023-03-18T07:52:21.815Z,95.90
2023-03-18T07:54:49.829Z,96.00
2023-03-18T07:57:18.250Z,96.40
2023-03-18T07:59:46.606Z,96.80
2023-03-18T08:02:15.885Z,97.10
2023-03-18T08:04:46.680Z,97.10
2023-03-18T08:07:17.194Z,97.20
2023-03-18T08:09:45.262Z,97.40
2023-03-18T08:12:13.639Z,97.60
2023-03-18T08:14:41.650Z,97.70
2023-03-18T08:17:09.995Z,97.60
2023-03-18T08:19:38.132Z,97.90
2023-03-18T08:22:06.215Z,97.40
2023-03-18T08:24:37.265Z,97.60
2023-03-18T08:27:05.840Z,97.80
2023-03-18T08:29:33.976Z,97.70
2023-03-18T08:32:02.123Z,97.60
2023-03-18T08:34:30.251Z,97.70
2023-03-18T08:36:58.370Z,97.70
2023-03-18T08:39:27.036Z,97.50
2023-03-18T08:41:56.668Z,97.60
2023-03-18T08:44:24.726Z,97.70
2023-03-18T08:46:52.818Z,97.50
2023-03-18T08:49:21.003Z,97.60
2023-03-18T08:51:49.095Z,97.80
2023-03-18T08:54:17.640Z,97.80
2023-03-18T08:56:45.810Z,97.60
2023-03-18T08:59:15.418Z,97.40
2023-03-18T09:01:43.511Z,96.60
2023-03-18T09:04:11.619Z,96.20
2023-03-18T09:06:39.911Z,96.70
2023-03-18T09:09:08.214Z,96.60
2023-03-18T09:11:36.553Z,96.50
2023-03-18T09:14:04.807Z,97.00
2023-03-18T09:16:34.993Z,96.80
2023-03-18T09:19:03.376Z,96.40
2023-03-18T09:21:31.576Z,96.80
2023-03-18T09:23:59.684Z,96.60
2023-03-18T09:26:27.843Z,96.70
2023-03-18T09:28:55.988Z,96.90
2023-03-18T09:31:24.714Z,97.10
2023-03-18T09:33:54.392Z,97.40
2023-03-18T09:36:22.551Z,97.50
2023-03-18T09:38:50.802Z,97.60
2023-03-18T09:41:35.059Z,97.40
2023-03-18T09:44:14.934Z,97.20
2023-03-18T09:46:58.733Z,97.30
2023-03-18T09:49:40.532Z,97.10
2023-03-18T09:52:20.287Z,97.10
2023-03-18T09:54:55.119Z,97.20
2023-03-18T09:57:28.722Z,97.30
2023-03-18T10:00:05.232Z,97.50
2023-03-18T10:02:37.072Z,97.50
2023-03-18T10:05:15.184Z,97.70
2023-03-18T10:07:45.737Z,97.90
2023-03-18T10:10:23.219Z,97.90
2023-03-18T10:12:56.962Z,97.60
2023-03-18T10:15:31.407Z,97.40
2023-03-18T10:18:06.280Z,97.10
2023-03-18T10:20:46.449Z,97.40
2023-03-18T10:23:31.084Z,97.00
2023-03-18T10:26:05.781Z,97.00
2023-03-18T10:28:59.358Z,96.90
2023-03-18T10:31:44.503Z,97.00
2023-03-18T10:34:16.499Z,97.00
2023-03-18T10:36:52.197Z,96.80
2023-03-18T10:39:24.832Z,97.10
2023-03-18T10:41:54.694Z,97.00
2023-03-18T10:44:27.569Z,96.60
2023-03-18T10:47:01.920Z,96.90
2023-03-18T10:49:33.723Z,97.10
2023-03-18T10:52:08.876Z,97.40
2023-03-18T10:54:41.558Z,96.60
2023-03-18T10:57:15.823Z,96.60
2023-03-18T10:59:45.656Z,96.90
2023-03-18T11:02:19.638Z,97.10
2023-03-18T11:04:50.818Z,97.30
2023-03-18T11:07:25.899Z,97.60
2023-03-18T11:09:54.741Z,97.80
2023-03-18T11:12:28.454Z,97.90
2023-03-18T11:14:57.929Z,97.90
2023-03-18T11:17:29.485Z,98.10
2023-03-18T11:20:08.115Z,98.40
2023-03-18T11:22:38.698Z,98.50
2023-03-18T11:25:16.459Z,98.30
2023-03-18T11:27:47.369Z,97.70
2023-03-18T11:30:34.082Z,97.70
2023-03-18T11:33:07.378Z,98.10
2023-03-18T11:35:40.478Z,98.20
2023-03-18T11:38:16.638Z,98.00
2023-03-18T11:40:44.947Z,98.20
2023-03-18T11:43:20.315Z,98.40
2023-03-18T11:45:53.239Z,98.50
2023-03-18T11:48:36.689Z,98.50
2023-03-18T11:51:39.575Z,98.80
2023-03-18T11:54:28.725Z,98.60
2023-03-18T11:57:00.439Z,98.70
2023-03-18T11:59:55.872Z,99.00
2023-03-18T12:02:49.528Z,99.20
2023-03-18T12:05:49.698Z,99.70
2023-03-18T12:08:31.702Z,99.70
2023-03-18T12:11:08.794Z,99.80
2023-03-18T12:13:48.758Z,99.30
2023-03-18T12:16:26.838Z,99.20
2023-03-18T12:19:18.174Z,99.20
2023-03-18T12:22:07.938Z,99.60
2023-03-18T12:25:03.390Z,99.90
2023-03-18T12:27:43.906Z,99.90
2023-03-18T12:30:42.531Z,99.90
2023-03-18T12:33:26.316Z,99.90
2023-03-18T12:36:04.183Z,99.90
2023-03-18T12:39:10.799Z,99.90
2023-03-18T12:41:51.653Z,99.90
2023-03-18T12:44:36.578Z,99.90
2023-03-18T12:47:07.866Z,99.90
2023-03-18T12:49:39.202Z,99.90
2023-03-18T12:52:10.864Z,99.90
2023-03-18T12:54:44.941Z,99.90
2023-03-18T12:57:17.010Z,99.90
2023-03-18T12:59:56.708Z,99.90
2023-03-18T13:02:41.302Z,99.90
2023-03-18T13:05:22.246Z,99.90
2023-03-18T13:08:01.975Z,99.90
2023-03-18T13:10:37.629Z,99.90
2023-03-18T13:13:10.523Z,99.90
2023-03-18T13:15:45.277Z,99.90
2023-03-18T13:18:18.417Z,99.90
2023-03-18T13:20:48.241Z,99.90
2023-03-18T13:23:41.465Z,99.90
2023-03-18T13:26:22.300Z,99.90
2023-03-18T13:29:00.546Z,99.90
2023-03-18T13:31:43.662Z,99.90
2023-03-18T13:34:42.333Z,99.90
2023-03-18T13:37:28.824Z,99.90
2023-03-18T13:40:27.626Z,99.90
2023-03-18T13:43:00.176Z,99.90
2023-03-18T13:45:31.336Z,99.90
2023-03-18T13:48:06.556Z,99.90
2023-03-18T13:50:39.633Z,99.90
2023-03-18T13:53:22.002Z,99.90
2023-03-18T13:56:00.719Z,99.90
2023-03-18T13:58:31.078Z,99.90
2023-03-18T14:01:29.957Z,99.90
2023-03-18T14:04:02.515Z,99.90
2023-03-18T14:06:53.881Z,99.90
2023-03-18T14:09:37.296Z,99.90
2023-03-18T14:12:39.910Z,99.90
2023-03-18T14:15:31.140Z,99.90
2023-03-18T14:18:00.947Z,99.90
2023-03-18T14:20:39.518Z,99.90
2023-03-18T14:23:44.284Z,99.90
2023-03-18T14:26:21.847Z,99.90
2023-03-18T14:28:55.254Z,99.90
2023-03-18T14:31:35.115Z,99.90
2023-03-18T14:34:23.345Z,99.90
2023-03-18T14:37:24.216Z,99.90
2023-03-18T14:39:56.335Z,99.90
2023-03-18T14:42:37.033Z,99.90
2023-03-18T14:45:16.526Z,99.90
2023-03-18T14:47:48.712Z,99.90
2023-03-18T14:50:30.617Z,99.90
2023-03-18T14:53:04.720Z,99.90
2023-03-18T14:55:36.858Z,99.90
2023-03-18T14:58:06.054Z,99.90
2023-03-18T15:00:36.494Z,99.90
2023-03-18T15:03:10.416Z,99.90
2023-03-18T15:05:40.910Z,99.90
2023-03-18T15:08:11.836Z,99.90
2023-03-18T15:10:41.723Z,99.90
2023-03-18T15:13:15.343Z,99.90
2023-03-18T15:15:43.998Z,99.90
2023-03-18T15:18:26.460Z,99.90
2023-03-18T15:20:57.407Z,99.90
2023-03-18T15:23:31.951Z,99.90
2023-03-18T15:26:02.060Z,99.90
2023-03-18T15:28:31.625Z,99.90
2023-03-18T15:31:01.827Z,99.90
2023-03-18T15:33:34.893Z,99.90
2023-03-18T15:36:06.982Z,99.90
2023-03-18T15:38:35.432Z,99.90
2023-03-18T15:41:07.483Z,99.90
2023-03-18T15:43:40.314Z,99.90
2023-03-18T15:46:16.440Z,99.90
2023-03-18T15:48:54.290Z,99.90
2023-03-18T15:51:30.041Z,99.90
2023-03-18T15:54:04.042Z,99.90
2023-03-18T15:56:35.529Z,99.90
2023-03-18T15:59:13.300Z,99.90
2023-03-18T16:01:41.977Z,99.90
2023-03-18T16:04:15.666Z,99.90
2023-03-18T16:06:44.429Z,99.90
2023-03-18T16:09:17.220Z,99.90
2023-03-18T16:11:49.346Z,99.90
2023-03-18T16:14:19.685Z,99.90
2023-03-18T16:16:48.621Z,99.90
2023-03-18T16:19:20.171Z,99.90
2023-03-18T16:21:48.808Z,99.90
2023-03-18T16:24:17.056Z,99.90
2023-03-18T16:26:47.085Z,99.90
2023-03-18T16:29:17.475Z,99.90
2023-03-18T16:31:46.539Z,99.90
2023-03-18T16:34:16.613Z,99.90
2023-03-18T16:36:45.188Z,99.90
2023-03-18T16:39:19.713Z,99.90
2023-03-18T16:41:49.700Z,99.90
2023-03-18T16:44:20.066Z,99.90
2023-03-18T16:46:50.039Z,99.90
2023-03-18T16:49:21.552Z,99.90
2023-03-18T16:51:50.684Z,99.90
2023-03-18T16:54:21.159Z,99.90
2023-03-18T16:56:53.461Z,99.90
2023-03-18T16:59:22.264Z,99.90
2023-03-18T17:01:51.000Z,99.90
2023-03-18T17:04:23.309Z,99.90
2023-03-18T17:06:52.119Z,99.90
2023-03-18T17:09:20.680Z,99.90
2023-03-18T17:11:51.287Z,99.90
2023-03-18T17:14:30.066Z,99.90
2023-03-18T17:17:00.585Z,99.90
2023-03-18T17:19:28.764Z,99.90
2023-03-18T17:21:57.228Z,99.90
2023-03-18T17:24:25.738Z,99.90
2023-03-18T17:26:55.967Z,99.90
2023-03-18T17:29:26.482Z,99.90
2023-03-18T17:31:55.810Z,99.90
2023-03-18T17:34:24.599Z,99.90
2023-03-18T17:36:52.961Z,99.90
2023-03-18T17:39:21.443Z,99.90
2023-03-18T17:41:49.723Z,99.90
2023-03-18T17:44:29.752Z,99.90
2023-03-18T17:46:58.388Z,99.90
2023-03-18T17:49:27.749Z,99.90
2023-03-18T17:51:57.369Z,99.90
2023-03-18T17:54:27.238Z,99.90
2023-03-18T17:56:56.182Z,99.90
2023-03-18T17:59:26.150Z,99.90
2023-03-18T18:01:54.800Z,99.90
2023-03-18T18:04:24.819Z,99.90
2023-03-18T18:06:53.647Z,99.90
2023-03-18T18:09:22.000Z,99.90
2023-03-18T18:11:51.018Z,99.90
2023-03-18T18:14:22.251Z,99.90
2023-03-18T18:16:53.692Z,99.90
2023-03-18T18:19:22.865Z,99.90
2023-03-18T18:21:51.663Z,99.90
2023-03-18T18:24:24.538Z,99.90
2023-03-18T18:26:53.332Z,99.90
2023-03-18T18:29:23.630Z,99.90
2023-03-18T18:31:53.819Z,99.90
2023-03-18T18:34:22.290Z,99.90
2023-03-18T18:36:51.117Z,99.90
2023-03-18T18:39:19.691Z,99.90
2023-03-18T18:41:48.119Z,99.90
2023-03-18T18:44:16.471Z,99.90
2023-03-18T18:46:44.577Z,99.90
2023-03-18T18:49:22.056Z,99.90
2023-03-18T18:51:50.746Z,99.90
2023-03-18T18:54:19.592Z,99.90
2023-03-18T18:56:47.808Z,99.90
2023-03-18T18:59:24.843Z,99.90
2023-03-18T19:01:53.560Z,99.90
2023-03-18T19:04:23.684Z,99.90
2023-03-18T19:06:53.715Z,99.90
2023-03-18T19:09:24.441Z,99.90
2023-03-18T19:11:53.401Z,99.90
2023-03-18T19:14:24.714Z,99.90
2023-03-18T19:16:55.670Z,99.90
2023-03-18T19:19:28.503Z,99.90
2023-03-18T19:21:57.527Z,99.90
2023-03-18T19:24:28.620Z,99.90
2023-03-18T19:26:58.296Z,99.90
2023-03-18T19:29:27.271Z,99.90
2023-03-18T19:31:55.493Z,99.90
2023-03-18T19:34:25.666Z,99.90
2023-03-18T19:36:56.328Z,99.90
2023-03-18T19:39:24.840Z,99.90
2023-03-18T19:41:53.105Z,99.90
2023-03-18T19:44:22.899Z,99.90
2023-03-18T19:46:53.333Z,99.90
2023-03-18T19:49:25.354Z,99.90
2023-03-18T19:51:55.108Z,99.90
2023-03-18T19:54:31.664Z,99.90
2023-03-18T19:57:01.405Z,99.90
2023-03-18T19:59:38.004Z,99.90
2023-03-18T20:02:20.987Z,99.90
2023-03-18T20:04:49.524Z,99.90
2023-03-18T20:07:20.735Z,99.90
2023-03-18T20:09:50.075Z,99.90
2023-03-18T20:12:23.936Z,99.90
2023-03-18T20:14:52.642Z,99.90
2023-03-18T20:17:31.392Z,99.90
2023-03-18T20:19:59.806Z,99.90
2023-03-18T20:22:33.260Z,99.90
2023-03-18T20:25:02.214Z,99.90
2023-03-18T20:27:30.746Z,99.90
2023-03-18T20:29:59.663Z,99.90
2023-03-18T20:32:28.180Z,99.90
2023-03-18T20:34:56.567Z,99.90
2023-03-18T20:37:33.610Z,99.90
2023-03-18T20:40:02.879Z,99.90
2023-03-18T20:42:31.097Z,99.90
2023-03-18T20:44:59.655Z,99.90
2023-03-18T20:47:28.219Z,99.90
2023-03-18T20:49:56.815Z,99.90
2023-03-18T20:52:28.621Z,99.90
2023-03-18T20:54:58.903Z,99.90
2023-03-18T20:57:28.095Z,99.90
2023-03-18T20:59:57.072Z,99.90
2023-03-18T21:02:31.356Z,99.90
2023-03-18T21:05:01.111Z,99.90
2023-03-18T21:07:29.843Z,99.90
2023-03-18T21:10:00.260Z,99.90
2023-03-18T21:12:29.015Z,99.90
2023-03-18T21:14:57.615Z,99.90
2023-03-18T21:17:27.561Z,99.90
2023-03-18T21:20:05.050Z,99.90
2023-03-18T21:22:39.910Z,99.90
2023-03-18T21:25:17.166Z,99.90
2023-03-18T21:27:46.166Z,99.90
2023-03-18T21:30:16.312Z,99.90
2023-03-18T21:32:46.306Z,99.90
2023-03-18T21:35:25.773Z,99.90
2023-03-18T21:37:54.536Z,99.90
2023-03-18T21:40:26.349Z,99.90
2023-03-18T21:42:54.953Z,99.90
2023-03-18T21:45:24.303Z,99.90
2023-03-18T21:47:53.345Z,99.90
2023-03-18T21:50:24.040Z,99.90
2023-03-18T21:52:53.123Z,99.90
2023-03-18T21:55:22.253Z,99.90
2023-03-18T21:57:52.187Z,99.90
2023-03-18T22:00:21.905Z,99.90
2023-03-18T22:02:51.057Z,99.90
2023-03-18T22:05:21.970Z,99.90
2023-03-18T22:07:51.500Z,99.90
2023-03-18T22:10:22.957Z,99.90
2023-03-18T22:12:53.128Z,99.90
2023-03-18T22:15:38.290Z,99.90
2023-03-18T22:18:07.373Z,99.90
2023-03-18T22:20:37.513Z,99.90
2023-03-18T22:23:15.029Z,99.90
2023-03-18T22:25:44.841Z,99.90
2023-03-18T22:28:14.639Z,99.90
2023-03-18T22:30:44.956Z,99.90
2023-03-18T22:33:22.078Z,99.90
2023-03-18T22:35:51.053Z,99.90
2023-03-18T22:38:21.975Z,99.90
2023-03-18T22:40:54.205Z,99.90
2023-03-18T22:43:31.225Z,99.90
2023-03-18T22:46:01.196Z,99.90
2023-03-18T22:48:30.590Z,99.90
2023-03-18T22:51:00.329Z,99.90
2023-03-18T22:53:31.925Z,99.90
2023-03-18T22:56:05.435Z,99.90
2023-03-18T22:58:35.521Z,99.90
2023-03-18T23:01:04.209Z,99.90
2023-03-18T23:03:35.110Z,99.90
2023-03-18T23:06:04.882Z,99.90
2023-03-18T23:08:33.504Z,99.90
2023-03-18T23:11:02.804Z,99.90
2023-03-18T23:13:36.967Z,99.90
2023-03-18T23:16:06.904Z,99.90
2023-03-18T23:18:35.586Z,99.90
2023-03-18T23:21:03.900Z,99.90
2023-03-18T23:23:32.374Z,99.90
2023-03-18T23:26:01.926Z,99.90
2023-03-18T23:28:31.888Z,99.90
2023-03-18T23:31:02.993Z,99.90
2023-03-18T23:33:32.275Z,99.90
2023-03-18T23:36:00.688Z,99.90
2023-03-18T23:38:29.137Z,99.90
2023-03-18T23:40:57.432Z,99.90
2023-03-18T23:43:25.809Z,99.90
2023-03-18T23:45:54.240Z,99.90
2023-03-18T23:48:24.099Z,99.90
2023-03-18T23:50:52.462Z,99.90
2023-03-18T23:53:20.911Z,99.90
2023-03-18T23:55:50.175Z,99.90
2023-03-18T23:58:18.282Z,99.90
